PWSweather.com
Personal Weather Stations
Station Observations
MARICOPA
Cobblestone Farms, Maricopa, AZ 85139

Cobblestone FarmsMaricopa, AZ 85139

Lat: 33.076, Lon: -112.0445

Elevation: 1148

Station Type: LaCrosse 2310/15

http://weather.azkiwis.net

Latest ConditionsUpdated 5:15:00 PM MST Friday, Jul 1, 2016
Currently Today's Max Today's Min Today's Average
Temperature 100.9°F38.3°C 102.1°F38.9°C 76.3°F24.6°C 87.6°F30.9°C
Dew Point 64.8°F18.2°C 71.7°F22.1°C 61.5°F16.4°C 66.2°F19.0°C
Winds Calm Calm 6.9 mph SSE11.1 kmh SSE - 0.6 mph 1.0 kmh
Wind Gusts -- 5.8 mph9.3 kmh - -
Humidity 31% 76% 31% 51%
Pressure 29.83 in1010.2 mb 29.97 in1014.9 mb 29.83 in1010.2 mb -
Precipitation - 0.12 in3.0 mm - -
Hour Temp Dew Point Humidity Winds Wind Gusts Pressure Precip Precip Rate Daily Precip Total
05:15 PM 100.9°F38.3°C 64.8°F18.2°C 31% Calm Calm -- 29.83 in1010.2 mb - 0.00 in0.0 mm 0.12 in3.0 mm
05:00 PM 100.9°F38.3°C 64.8°F18.2°C 31% Calm Calm -- 29.83 in1010.2 mb - 0.00 in0.0 mm 0.12 in3.0 mm
04:45 PM 98.8°F37.1°C 64.7°F18.2°C 33% Calm Calm -- 29.84 in1010.5 mb - 0.00 in0.0 mm 0.12 in3.0 mm
04:30 PM 95.1°F35.1°C 65.5°F18.6°C 38% Calm Calm -- 29.85 in1010.8 mb - 0.00 in0.0 mm 0.12 in3.0 mm
04:15 PM 94.0°F34.4°C 64.5°F18.1°C 38% Calm Calm -- 29.86 in1011.2 mb - 0.00 in0.0 mm 0.12 in3.0 mm
04:00 PM 94.6°F34.8°C 64.3°F17.9°C 37% Calm Calm -- 29.85 in1010.8 mb - 0.00 in0.0 mm 0.12 in3.0 mm
03:45 PM 93.5°F34.2°C 64.0°F17.8°C 38% Calm Calm -- 29.86 in1011.2 mb - 0.00 in0.0 mm 0.12 in3.0 mm
03:30 PM 94.1°F34.5°C 64.6°F18.1°C 38% Calm Calm -- 29.87 in1011.5 mb - 0.00 in0.0 mm 0.12 in3.0 mm
03:15 PM 95.6°F35.3°C 64.4°F18.0°C 36% Calm Calm -- 29.87 in1011.5 mb - 0.00 in0.0 mm 0.12 in3.0 mm
03:00 PM 97.9°F36.6°C 63.9°F17.7°C 33% Calm Calm -- 29.87 in1011.5 mb - 0.00 in0.0 mm 0.12 in3.0 mm
02:45 PM 102.1°F38.9°C 65.7°F18.7°C 31% Calm Calm -- 29.88 in1011.9 mb - 0.00 in0.0 mm 0.12 in3.0 mm
02:30 PM 101.8°F38.8°C 67.3°F19.6°C 33% Calm Calm -- 29.89 in1012.2 mb - 0.00 in0.0 mm 0.12 in3.0 mm
02:15 PM 100.2°F37.9°C 67.6°F19.8°C 35% Calm Calm -- 29.89 in1012.2 mb - 0.00 in0.0 mm 0.12 in3.0 mm
02:00 PM 100.0°F37.8°C 68.3°F20.2°C 36% Calm Calm -- 29.90 in1012.5 mb - 0.00 in0.0 mm 0.12 in3.0 mm
01:45 PM 99.9°F37.7°C 68.1°F20.1°C 36% Calm Calm -- 29.91 in1012.9 mb - 0.00 in0.0 mm 0.12 in3.0 mm
01:30 PM 98.4°F36.9°C 69.2°F20.7°C 39% Calm Calm -- 29.91 in1012.9 mb - 0.00 in0.0 mm 0.12 in3.0 mm
01:15 PM 97.3°F36.3°C 69.0°F20.6°C 40% Calm Calm -- 29.92 in1013.2 mb - 0.00 in0.0 mm 0.12 in3.0 mm
01:00 PM 96.3°F35.7°C 70.1°F21.2°C 43% Calm Calm -- 29.92 in1013.2 mb - 0.00 in0.0 mm 0.12 in3.0 mm
12:45 PM 95.4°F35.2°C 70.0°F21.1°C 44% Calm Calm -- 29.93 in1013.5 mb - 0.00 in0.0 mm 0.12 in3.0 mm
12:30 PM 95.2°F35.1°C 69.8°F21.0°C 44% Calm Calm -- 29.93 in1013.5 mb - 0.00 in0.0 mm 0.12 in3.0 mm
12:15 PM 94.5°F34.7°C 69.2°F20.7°C 44% Calm Calm -- 29.94 in1013.9 mb - 0.00 in0.0 mm 0.12 in3.0 mm
12:00 PM 93.0°F33.9°C 69.8°F21.0°C 47% Calm Calm -- 29.95 in1014.2 mb - 0.00 in0.0 mm 0.12 in3.0 mm
11:45 AM 92.3°F33.5°C 69.8°F21.0°C 48% Calm Calm -- 29.96 in1014.6 mb - 0.00 in0.0 mm 0.12 in3.0 mm
11:30 AM 91.6°F33.1°C 69.7°F20.9°C 49% Calm Calm -- 29.95 in1014.2 mb - 0.00 in0.0 mm 0.12 in3.0 mm
11:15 AM 91.2°F32.9°C 70.5°F21.4°C 51% Calm Calm -- 29.96 in1014.6 mb - 0.00 in0.0 mm 0.12 in3.0 mm
11:00 AM 90.7°F32.6°C 71.2°F21.8°C 53% Calm Calm -- 29.97 in1014.9 mb - 0.00 in0.0 mm 0.12 in3.0 mm
10:45 AM 90.7°F32.6°C 71.7°F22.1°C 54% Calm Calm -- 29.97 in1014.9 mb - 0.03 in0.8 mm 0.12 in3.0 mm
10:30 AM 85.1°F29.5°C 70.6°F21.4°C 62% 2.3 mph ESE3.7 kmh ESE 3.5 mph5.6 kmh 29.97 in1014.9 mb - 0.00 in0.0 mm 0.09 in2.3 mm
10:15 AM 83.0°F28.3°C 71.4°F21.9°C 68% Calm Calm -- 29.96 in1014.6 mb - 0.00 in0.0 mm 0.09 in2.3 mm
10:00 AM 79.9°F26.6°C 70.5°F21.4°C 73% Calm Calm -- 29.96 in1014.6 mb - 0.00 in0.0 mm 0.09 in2.3 mm
09:45 AM 77.2°F25.1°C 68.7°F20.4°C 75% 2.3 mph S3.7 kmh S 3.5 mph5.6 kmh 29.96 in1014.6 mb - 0.00 in0.0 mm 0.09 in2.3 mm
09:30 AM 76.8°F24.9°C 68.3°F20.2°C 75% Calm Calm 4.6 mph7.4 kmh 29.96 in1014.6 mb - 0.00 in0.0 mm 0.09 in2.3 mm
09:15 AM 76.6°F24.8°C 68.5°F20.3°C 76% 2.3 mph SE3.7 kmh SE 3.5 mph5.6 kmh 29.96 in1014.6 mb - 0.00 in0.0 mm 0.09 in2.3 mm
09:00 AM 76.6°F24.8°C 68.5°F20.3°C 76% 3.5 mph S5.6 kmh S 5.8 mph9.3 kmh 29.96 in1014.6 mb - 0.00 in0.0 mm 0.09 in2.3 mm
08:45 AM 76.6°F24.8°C 68.5°F20.3°C 76% 1.2 mph SSW1.9 kmh SSW 4.6 mph7.4 kmh 29.96 in1014.6 mb - 0.00 in0.0 mm 0.09 in2.3 mm
08:30 AM 76.5°F24.7°C 68.3°F20.2°C 76% Calm Calm -- 29.96 in1014.6 mb - 0.00 in0.0 mm 0.09 in2.3 mm
08:15 AM 76.3°F24.6°C 68.2°F20.1°C 76% Calm Calm -- 29.96 in1014.6 mb - 0.00 in0.0 mm 0.09 in2.3 mm
08:00 AM 76.5°F24.7°C 68.4°F20.2°C 76% Calm Calm -- 29.96 in1014.6 mb - 0.00 in0.0 mm 0.09 in2.3 mm
07:45 AM 76.7°F24.8°C 68.6°F20.3°C 76% Calm Calm -- 29.96 in1014.6 mb - 0.00 in0.0 mm 0.09 in2.3 mm
07:30 AM 77.0°F25.0°C 68.1°F20.1°C 74% Calm Calm -- 29.95 in1014.2 mb - 0.00 in0.0 mm 0.09 in2.3 mm
07:15 AM 78.1°F25.6°C 68.3°F20.2°C 72% Calm Calm -- 29.94 in1013.9 mb - 0.06 in1.5 mm 0.09 in2.3 mm
07:00 AM 78.8°F26.0°C 67.3°F19.6°C 68% Calm Calm -- 29.93 in1013.5 mb - 0.00 in0.0 mm 0.03 in0.8 mm
06:45 AM 80.3°F26.8°C 67.0°F19.4°C 64% 2.3 mph E3.7 kmh E 4.6 mph7.4 kmh 29.91 in1012.9 mb - 0.03 in0.8 mm 0.03 in0.8 mm
06:30 AM 82.9°F28.3°C 67.1°F19.5°C 59% Calm Calm 1.2 mph1.9 kmh 29.90 in1012.5 mb - 0.00 in0.0 mm 0.00 in0.0 mm
06:15 AM 83.0°F28.3°C 64.1°F17.8°C 53% 1.2 mph SE1.9 kmh SE 3.5 mph5.6 kmh 29.90 in1012.5 mb - 0.00 in0.0 mm 0.00 in0.0 mm
06:00 AM 82.9°F28.3°C 64.0°F17.8°C 53% 3.5 mph SE5.6 kmh SE 4.6 mph7.4 kmh 29.89 in1012.2 mb - 0.00 in0.0 mm 0.00 in0.0 mm
05:45 AM 82.8°F28.2°C 64.5°F18.1°C 54% Calm Calm -- 29.89 in1012.2 mb - 0.00 in0.0 mm 0.00 in0.0 mm
05:30 AM 82.8°F28.2°C 64.9°F18.3°C 55% Calm Calm 1.2 mph1.9 kmh 29.89 in1012.2 mb - 0.00 in0.0 mm 0.00 in0.0 mm
05:15 AM 82.9°F28.3°C 64.6°F18.1°C 54% Calm Calm -- 29.88 in1011.9 mb - 0.00 in0.0 mm 0.00 in0.0 mm
05:00 AM 83.1°F28.4°C 64.8°F18.2°C 54% Calm Calm -- 29.88 in1011.9 mb - 0.00 in0.0 mm 0.00 in0.0 mm
04:45 AM 83.5°F28.6°C 65.1°F18.4°C 54% 1.2 mph SSW1.9 kmh SSW -- 29.88 in1011.9 mb - 0.00 in0.0 mm 0.00 in0.0 mm
04:30 AM 83.7°F28.7°C 65.3°F18.5°C 54% 1.2 mph S1.9 kmh S 2.3 mph3.7 kmh 29.87 in1011.5 mb - 0.00 in0.0 mm 0.00 in0.0 mm
04:15 AM 83.8°F28.8°C 64.3°F17.9°C 52% 4.6 mph SSE7.4 kmh SSE 4.6 mph7.4 kmh 29.87 in1011.5 mb - 0.00 in0.0 mm 0.00 in0.0 mm
04:00 AM 83.8°F28.8°C 62.6°F17.0°C 49% Calm Calm -- 29.87 in1011.5 mb - 0.00 in0.0 mm 0.00 in0.0 mm
03:45 AM 84.0°F28.9°C 62.2°F16.8°C 48% Calm Calm 1.2 mph1.9 kmh 29.86 in1011.2 mb - 0.00 in0.0 mm 0.00 in0.0 mm
03:30 AM 84.2°F29.0°C 61.8°F16.6°C 47% Calm Calm -- 29.86 in1011.2 mb - 0.00 in0.0 mm 0.00 in0.0 mm
03:15 AM 84.4°F29.1°C 61.9°F16.6°C 47% 1.2 mph ESE1.9 kmh ESE 1.2 mph1.9 kmh 29.86 in1011.2 mb - 0.00 in0.0 mm 0.00 in0.0 mm
03:00 AM 84.6°F29.2°C 61.5°F16.4°C 46% 1.2 mph E1.9 kmh E 2.3 mph3.7 kmh 29.86 in1011.2 mb - 0.00 in0.0 mm 0.00 in0.0 mm
02:45 AM 84.7°F29.3°C 61.7°F16.5°C 46% Calm Calm -- 29.87 in1011.5 mb - 0.00 in0.0 mm 0.00 in0.0 mm
02:30 AM 84.9°F29.4°C 62.4°F16.9°C 47% 2.3 mph N3.7 kmh N 2.3 mph3.7 kmh 29.87 in1011.5 mb - 0.00 in0.0 mm 0.00 in0.0 mm
02:15 AM 84.9°F29.4°C 63.0°F17.2°C 48% Calm Calm -- 29.86 in1011.2 mb - 0.00 in0.0 mm 0.00 in0.0 mm
02:00 AM 85.3°F29.6°C 62.8°F17.1°C 47% 6.9 mph SSE11.1 kmh SSE -- 29.86 in1011.2 mb - 0.00 in0.0 mm 0.00 in0.0 mm
01:45 AM 85.4°F29.7°C 62.3°F16.8°C 46% Calm Calm 2.3 mph3.7 kmh 29.87 in1011.5 mb - 0.00 in0.0 mm 0.00 in0.0 mm
01:30 AM 85.6°F29.8°C 62.5°F16.9°C 46% 1.2 mph SSE1.9 kmh SSE 3.5 mph5.6 kmh 29.87 in1011.5 mb - 0.00 in0.0 mm 0.00 in0.0 mm
01:15 AM 86.0°F30.0°C 62.8°F17.1°C 46% Calm Calm 4.6 mph7.4 kmh 29.87 in1011.5 mb - 0.00 in0.0 mm 0.00 in0.0 mm
01:00 AM 86.4°F30.2°C 63.8°F17.7°C 47% Calm Calm 3.5 mph5.6 kmh 29.87 in1011.5 mb - 0.00 in0.0 mm 0.00 in0.0 mm
12:45 AM 86.5°F30.3°C 63.9°F17.7°C 47% 2.3 mph SE3.7 kmh SE 1.2 mph1.9 kmh 29.87 in1011.5 mb - 0.00 in0.0 mm 0.00 in0.0 mm
12:30 AM 86.7°F30.4°C 63.5°F17.5°C 46% 1.2 mph SSE1.9 kmh SSE 5.8 mph9.3 kmh 29.87 in1011.5 mb - 0.00 in0.0 mm 0.00 in0.0 mm
12:15 AM 86.7°F30.4°C 63.5°F17.5°C 46% Calm Calm -- 29.88 in1011.9 mb - 0.00 in0.0 mm 0.00 in0.0 mm
12:00 AM 86.9°F30.5°C 63.0°F17.2°C 45% Calm Calm -- 29.88 in1011.9 mb - 0.00 in0.0 mm 0.00 in0.0 mm